Terminal Aerodrome Forecast
Issued by NWS

Current Version | Previous Version | Graphics & Text | Print | Product List | Glossary On
Versions: 1 2 3 4 5 6 7 8 9 10 11 12 13 14 15 16 17 18
000
FTUS41 KPBZ 131739
TAFHLG
TAF
KHLG 131739Z 1318/1418 33006KT P6SM SCT025 BKN250
     FM141400 08004KT P6SM VCSH OVC050
     FM141700 00000KT P6SM -RASNPL OVC025=

USA.gov is the U.S. government's official web portal to all federal, state and local government web resources and services.